createdAt,value
2023-10-20T00:00:16.086Z,9.23
2023-10-20T00:02:44.835Z,11.90
2023-10-20T00:05:12.695Z,14.97
2023-10-20T00:07:40.385Z,18.00
2023-10-20T00:10:10.845Z,15.33
2023-10-20T00:12:40.383Z,23.63
2023-10-20T00:15:15.554Z,36.00
2023-10-20T00:17:44.176Z,39.93
2023-10-20T00:20:12.386Z,53.70
2023-10-20T00:22:40.487Z,33.20
2023-10-20T00:25:08.538Z,23.33
2023-10-20T00:27:36.078Z,23.47
2023-10-20T00:30:03.914Z,32.63
2023-10-20T00:32:32.271Z,43.27
2023-10-20T00:35:00.039Z,42.70
2023-10-20T00:37:27.588Z,37.70
2023-10-20T00:39:55.200Z,55.77
2023-10-20T00:42:22.795Z,47.47
2023-10-20T00:44:50.498Z,51.43
2023-10-20T00:47:19.531Z,46.40
2023-10-20T00:49:47.425Z,48.83
2023-10-20T00:52:16.339Z,47.97
2023-10-20T00:54:48.651Z,41.63
2023-10-20T00:57:17.533Z,41.17
2023-10-20T00:59:45.530Z,35.83
2023-10-20T01:02:14.141Z,36.43
2023-10-20T01:04:42.034Z,36.43
2023-10-20T01:07:09.625Z,31.27
2023-10-20T01:09:37.242Z,26.67
2023-10-20T01:12:05.634Z,26.53
2023-10-20T01:14:37.263Z,28.27
2023-10-20T01:17:04.977Z,17.43
2023-10-20T01:19:33.230Z,22.27
2023-10-20T01:22:01.157Z,21.03
2023-10-20T01:24:28.930Z,21.47
2023-10-20T01:26:56.591Z,21.33
2023-10-20T01:29:27.254Z,23.67
2023-10-20T01:31:54.866Z,22.43
2023-10-20T01:34:22.884Z,23.27
2023-10-20T01:36:50.599Z,23.17
2023-10-20T01:39:18.495Z,21.90
2023-10-20T01:41:46.086Z,22.53
2023-10-20T01:44:16.754Z,20.63
2023-10-20T01:46:50.767Z,20.57
2023-10-20T01:49:20.295Z,18.67
2023-10-20T01:51:48.440Z,14.73
2023-10-20T01:54:15.943Z,12.27
2023-10-20T01:56:45.127Z,10.60
2023-10-20T01:59:13.106Z,10.67
2023-10-20T02:01:40.749Z,10.20
2023-10-20T02:04:09.189Z,10.60
2023-10-20T02:06:36.807Z,11.67
2023-10-20T02:09:04.611Z,12.20
2023-10-20T02:11:32.798Z,11.33
2023-10-20T02:14:00.436Z,11.10
2023-10-20T02:16:28.080Z,11.80
2023-10-20T02:18:55.932Z,12.87
2023-10-20T02:21:23.556Z,11.87
2023-10-20T02:23:51.588Z,12.13
2023-10-20T02:26:20.534Z,11.50
2023-10-20T02:28:48.655Z,11.60
2023-10-20T02:31:19.052Z,10.63
2023-10-20T02:33:47.237Z,10.73
2023-10-20T02:36:22.664Z,13.70
2023-10-20T02:38:55.213Z,12.70
2023-10-20T02:41:23.017Z,11.37
2023-10-20T02:43:50.626Z,12.80
2023-10-20T02:46:18.316Z,11.43
2023-10-20T02:48:46.629Z,9.77
2023-10-20T02:51:18.961Z,9.77
2023-10-20T02:53:48.521Z,10.83
2023-10-20T02:56:20.960Z,12.63
2023-10-20T02:58:49.105Z,17.47
2023-10-20T03:01:19.842Z,20.87
2023-10-20T03:03:47.799Z,21.03
2023-10-20T03:06:15.461Z,24.50
2023-10-20T03:08:44.387Z,19.83
2023-10-20T03:11:12.736Z,12.50
2023-10-20T03:13:40.360Z,12.33
2023-10-20T03:16:08.353Z,9.63
2023-10-20T03:18:36.123Z,8.93
2023-10-20T03:21:04.563Z,7.20
2023-10-20T03:23:32.759Z,6.20
2023-10-20T03:26:00.355Z,6.07
2023-10-20T03:28:28.245Z,6.97
2023-10-20T03:30:56.168Z,6.83
2023-10-20T03:33:24.169Z,6.60
2023-10-20T03:36:04.642Z,6.40
2023-10-20T03:38:34.150Z,5.80
2023-10-20T03:41:08.915Z,5.33
2023-10-20T03:43:37.879Z,4.93
2023-10-20T03:46:07.416Z,6.10
2023-10-20T03:48:36.829Z,8.30
2023-10-20T03:51:08.815Z,9.03
2023-10-20T03:53:49.155Z,7.50
2023-10-20T03:56:20.474Z,5.97
2023-10-20T03:58:48.422Z,4.50
2023-10-20T04:01:16.420Z,4.97
2023-10-20T04:03:52.225Z,4.90
2023-10-20T04:06:21.580Z,4.60
2023-10-20T04:08:50.255Z,5.17
2023-10-20T04:11:18.305Z,4.87
2023-10-20T04:13:46.051Z,5.30
2023-10-20T04:16:17.754Z,5.43
2023-10-20T04:18:46.026Z,5.47
2023-10-20T04:21:13.753Z,5.90
2023-10-20T04:23:45.114Z,6.27
2023-10-20T04:26:22.601Z,6.33
2023-10-20T04:29:16.978Z,6.70
2023-10-20T04:32:09.702Z,6.43
2023-10-20T04:35:09.849Z,6.57
2023-10-20T04:37:56.226Z,6.67
2023-10-20T04:40:42.343Z,7.37
2023-10-20T04:43:15.998Z,7.33
2023-10-20T04:46:02.232Z,7.43
2023-10-20T04:48:52.686Z,8.33
2023-10-20T04:51:31.134Z,7.93
2023-10-20T04:54:23.656Z,7.50
2023-10-20T04:57:16.929Z,8.07
2023-10-20T04:59:45.707Z,7.70
2023-10-20T05:02:34.593Z,7.77
2023-10-20T05:05:02.774Z,7.50
2023-10-20T05:07:30.356Z,6.70
2023-10-20T05:09:58.424Z,7.87
2023-10-20T05:12:26.616Z,7.27
2023-10-20T05:14:54.272Z,8.10
2023-10-20T05:17:22.317Z,7.60
2023-10-20T05:19:50.829Z,7.30
2023-10-20T05:22:18.364Z,7.60
2023-10-20T05:24:46.104Z,7.70
2023-10-20T05:27:13.788Z,7.67
2023-10-20T05:29:43.771Z,7.43
2023-10-20T05:32:11.545Z,7.40
2023-10-20T05:34:39.143Z,7.50
2023-10-20T05:37:07.404Z,7.90
2023-10-20T05:39:36.125Z,6.77
2023-10-20T05:42:07.371Z,7.20
2023-10-20T05:44:39.228Z,8.80
2023-10-20T05:47:07.376Z,8.80
2023-10-20T05:49:38.649Z,9.10
2023-10-20T05:52:08.448Z,8.47
2023-10-20T05:54:42.128Z,8.10
2023-10-20T05:57:12.942Z,7.60
2023-10-20T05:59:42.449Z,7.30
2023-10-20T06:02:10.214Z,8.07
2023-10-20T06:04:48.705Z,7.43
2023-10-20T06:07:16.419Z,6.67
2023-10-20T06:09:44.369Z,7.57
2023-10-20T06:12:13.433Z,7.70
2023-10-20T06:14:40.964Z,8.37
2023-10-20T06:17:08.591Z,8.97
2023-10-20T06:19:37.135Z,9.30
2023-10-20T06:22:06.155Z,10.00
2023-10-20T06:24:34.615Z,10.70
2023-10-20T06:27:05.090Z,11.00
2023-10-20T06:29:32.991Z,11.03
2023-10-20T06:32:13.518Z,11.50
2023-10-20T06:34:44.124Z,12.43
2023-10-20T06:37:15.618Z,10.87
2023-10-20T06:39:43.393Z,10.57
2023-10-20T06:42:11.023Z,10.30
2023-10-20T06:44:38.626Z,10.50
2023-10-20T06:47:06.378Z,11.00
2023-10-20T06:49:34.469Z,14.77
2023-10-20T06:52:05.563Z,15.30
2023-10-20T06:54:34.076Z,10.80
2023-10-20T06:57:02.024Z,10.90
2023-10-20T06:59:29.743Z,10.83
2023-10-20T07:02:01.592Z,11.60
2023-10-20T07:04:30.500Z,10.47
2023-10-20T07:06:58.633Z,9.87
2023-10-20T07:09:28.213Z,10.83
2023-10-20T07:11:55.793Z,10.67
2023-10-20T07:14:23.538Z,10.17
2023-10-20T07:16:52.098Z,10.87
2023-10-20T07:19:19.668Z,9.93
2023-10-20T07:21:47.267Z,10.10
2023-10-20T07:24:14.884Z,10.27
2023-10-20T07:26:43.435Z,14.67
2023-10-20T07:29:11.331Z,20.33
2023-10-20T07:31:40.843Z,23.13
2023-10-20T07:34:11.040Z,25.33
2023-10-20T07:36:38.849Z,39.50
2023-10-20T07:39:09.829Z,35.63
2023-10-20T07:41:38.359Z,28.33
2023-10-20T07:44:06.177Z,14.87
2023-10-20T07:46:33.736Z,12.63
2023-10-20T07:49:01.402Z,10.77
2023-10-20T07:51:29.697Z,11.20
2023-10-20T07:53:57.322Z,10.37
2023-10-20T07:56:26.366Z,10.13
2023-10-20T07:58:54.333Z,9.77
2023-10-20T08:01:21.993Z,10.03
2023-10-20T08:03:50.488Z,15.67
2023-10-20T08:06:18.482Z,14.77
2023-10-20T08:08:47.221Z,11.90
2023-10-20T08:11:14.889Z,11.63
2023-10-20T08:13:42.537Z,11.13
2023-10-20T08:16:10.876Z,11.17
2023-10-20T08:18:38.691Z,11.67
2023-10-20T08:21:10.869Z,10.43
2023-10-20T08:23:39.837Z,10.37
2023-10-20T08:26:14.157Z,11.07
2023-10-20T08:28:41.791Z,10.50
2023-10-20T08:31:21.001Z,10.63
2023-10-20T08:33:49.870Z,10.57
2023-10-20T08:36:18.230Z,10.90
2023-10-20T08:38:48.940Z,9.93
2023-10-20T08:41:25.744Z,10.23
2023-10-20T08:43:54.815Z,10.37
2023-10-20T08:46:42.705Z,9.67
2023-10-20T08:49:11.484Z,9.53
2023-10-20T08:51:42.385Z,9.50
2023-10-20T08:54:10.390Z,9.47
2023-10-20T08:56:38.218Z,9.03
2023-10-20T08:59:06.887Z,10.03
2023-10-20T09:01:35.978Z,9.90
2023-10-20T09:04:06.147Z,10.77
2023-10-20T09:06:38.005Z,9.30
2023-10-20T09:09:07.345Z,10.13
2023-10-20T09:11:35.168Z,9.67
2023-10-20T09:14:03.961Z,9.60
2023-10-20T09:16:31.601Z,9.03
2023-10-20T09:18:59.752Z,8.43
2023-10-20T09:21:30.897Z,7.43
2023-10-20T09:24:04.798Z,7.77
2023-10-20T09:26:37.302Z,8.33
2023-10-20T09:29:09.344Z,8.33
2023-10-20T09:31:38.924Z,7.97
2023-10-20T09:34:08.369Z,7.90
2023-10-20T09:36:38.271Z,7.10
2023-10-20T09:39:09.812Z,7.83
2023-10-20T09:41:46.164Z,7.93
2023-10-20T09:44:35.210Z,7.73
2023-10-20T09:47:14.358Z,8.32
2023-10-20T09:49:44.505Z,7.88
2023-10-20T09:52:12.378Z,8.63
2023-10-20T09:54:40.660Z,8.00
2023-10-20T09:57:09.246Z,8.40
2023-10-20T09:59:40.365Z,8.40
2023-10-20T10:02:08.965Z,8.27
2023-10-20T10:04:42.703Z,8.30
2023-10-20T10:07:12.132Z,8.57
2023-10-20T10:09:44.762Z,9.20
2023-10-20T10:12:17.799Z,7.60
2023-10-20T10:15:24.035Z,9.35
2023-10-20T10:17:55.940Z,8.18
2023-10-20T10:20:30.031Z,9.07
2023-10-20T10:23:03.003Z,8.20
2023-10-20T10:25:46.989Z,8.60
2023-10-20T10:28:21.289Z,8.20
2023-10-20T10:30:53.989Z,8.93
2023-10-20T10:33:24.259Z,7.88
2023-10-20T10:36:11.694Z,8.32
2023-10-20T10:38:46.830Z,7.72
2023-10-20T10:41:14.651Z,7.25
2023-10-20T10:43:42.494Z,7.28
2023-10-20T10:46:13.312Z,6.72
2023-10-20T10:48:42.044Z,6.47
2023-10-20T10:51:09.622Z,7.57
2023-10-20T10:53:39.255Z,6.93
2023-10-20T10:56:07.868Z,8.45
2023-10-20T10:58:37.027Z,6.95
2023-10-20T11:01:05.101Z,6.80
2023-10-20T11:03:33.247Z,6.72
2023-10-20T11:06:01.456Z,6.35
2023-10-20T11:08:30.833Z,6.38
2023-10-20T11:11:00.378Z,7.00
2023-10-20T11:13:29.459Z,5.57
2023-10-20T11:15:57.225Z,6.68
2023-10-20T11:20:57.427Z,5.95
2023-10-20T11:23:35.461Z,5.78
2023-10-20T11:26:04.005Z,5.90
2023-10-20T11:28:31.766Z,6.20
2023-10-20T11:31:00.647Z,6.38
2023-10-20T11:33:29.118Z,6.70
2023-10-20T11:36:02.138Z,5.75
2023-10-20T11:38:30.369Z,6.78
2023-10-20T11:40:58.552Z,6.68
2023-10-20T11:43:27.260Z,6.57
2023-10-20T11:45:55.004Z,7.15
2023-10-20T11:48:23.319Z,7.50
2023-10-20T11:50:52.375Z,7.00
2023-10-20T11:53:23.353Z,6.07
2023-10-20T11:55:51.103Z,6.10
2023-10-20T11:58:19.356Z,6.72
2023-10-20T12:00:47.481Z,5.95
2023-10-20T12:03:16.477Z,5.93
2023-10-20T12:05:44.359Z,6.60
2023-10-20T12:08:12.921Z,5.93
2023-10-20T12:10:41.258Z,5.97
2023-10-20T12:13:09.755Z,5.00
2023-10-20T12:15:38.849Z,6.25
2023-10-20T12:18:09.234Z,5.65
2023-10-20T12:20:37.176Z,4.50
2023-10-20T12:23:07.416Z,4.75
2023-10-20T12:25:35.595Z,4.88
2023-10-20T12:28:03.910Z,5.00
2023-10-20T12:30:31.493Z,5.13
2023-10-20T12:32:59.597Z,5.53
2023-10-20T12:35:27.349Z,5.35
2023-10-20T12:37:57.967Z,5.75
2023-10-20T12:40:26.412Z,5.13
2023-10-20T12:42:54.099Z,5.28
2023-10-20T12:45:22.979Z,5.63
2023-10-20T12:47:50.604Z,4.95
2023-10-20T12:50:18.297Z,5.40
2023-10-20T12:52:45.870Z,4.88
2023-10-20T12:55:15.006Z,6.45
2023-10-20T12:57:42.903Z,4.60
2023-10-20T13:00:11.812Z,4.30
2023-10-20T13:02:39.688Z,4.35
2023-10-20T13:05:11.156Z,5.05
2023-10-20T13:07:39.194Z,3.72
2023-10-20T13:10:08.235Z,3.78
2023-10-20T13:12:38.138Z,3.97
2023-10-20T13:15:06.541Z,4.20
2023-10-20T13:17:34.768Z,4.32
2023-10-20T13:20:03.131Z,4.32
2023-10-20T13:22:31.627Z,3.97
2023-10-20T13:24:59.662Z,4.30
2023-10-20T13:27:31.320Z,4.50
2023-10-20T13:30:00.296Z,4.20
2023-10-20T13:32:28.822Z,4.22
2023-10-20T13:34:57.090Z,4.50
2023-10-20T13:37:24.773Z,4.38
2023-10-20T13:39:55.034Z,4.40
2023-10-20T13:42:23.536Z,4.45
2023-10-20T13:44:54.652Z,4.20
2023-10-20T13:47:22.387Z,4.38
2023-10-20T13:49:50.119Z,4.18
2023-10-20T13:52:18.995Z,4.00
2023-10-20T13:54:48.409Z,3.80
2023-10-20T13:57:16.796Z,3.78
2023-10-20T13:59:45.704Z,4.10
2023-10-20T14:02:15.724Z,4.53
2023-10-20T14:04:45.608Z,4.30
2023-10-20T14:07:13.840Z,4.22
2023-10-20T14:09:42.014Z,4.28
2023-10-20T14:12:09.795Z,3.67
2023-10-20T14:14:37.542Z,4.10
2023-10-20T14:17:13.711Z,4.22
2023-10-20T14:19:42.703Z,4.88
2023-10-20T14:22:11.722Z,5.30
2023-10-20T14:24:40.916Z,4.80
2023-10-20T14:27:10.549Z,4.25
2023-10-20T14:29:38.162Z,4.25
2023-10-20T14:32:06.036Z,4.10
2023-10-20T14:34:34.269Z,4.35
2023-10-20T14:37:03.012Z,4.07
2023-10-20T14:39:32.178Z,3.65
2023-10-20T14:41:59.968Z,4.07
2023-10-20T14:44:28.203Z,3.97
2023-10-20T14:47:00.608Z,3.33
2023-10-20T14:49:28.614Z,4.05
2023-10-20T14:51:56.372Z,4.72
2023-10-20T14:54:31.730Z,3.88
2023-10-20T14:56:59.553Z,4.55
2023-10-20T14:59:29.483Z,5.50
2023-10-20T15:02:02.108Z,4.05
2023-10-20T15:04:35.544Z,4.60
2023-10-20T15:07:06.275Z,4.55
2023-10-20T15:09:37.622Z,5.72
2023-10-20T15:12:08.821Z,5.10
2023-10-20T15:14:58.443Z,4.43
2023-10-20T15:17:30.251Z,4.13
2023-10-20T15:20:09.353Z,4.35
2023-10-20T15:22:41.779Z,4.35
2023-10-20T15:25:16.191Z,4.95
2023-10-20T15:27:44.029Z,4.57
2023-10-20T15:30:13.923Z,4.30
2023-10-20T15:32:48.424Z,5.22
2023-10-20T15:35:18.330Z,5.60
2023-10-20T15:37:48.411Z,5.15
2023-10-20T15:40:19.064Z,5.28
2023-10-20T15:42:51.673Z,5.65
2023-10-20T15:45:22.306Z,5.57
2023-10-20T15:47:53.725Z,6.63
2023-10-20T15:50:23.592Z,6.38
2023-10-20T15:52:51.718Z,6.63
2023-10-20T15:55:20.742Z,17.25
2023-10-20T15:57:54.043Z,10.32
2023-10-20T16:00:23.402Z,9.30
2023-10-20T16:02:54.514Z,8.43
2023-10-20T16:05:22.844Z,10.07
2023-10-20T16:07:54.218Z,13.32
2023-10-20T16:10:23.464Z,16.33
2023-10-20T16:12:53.829Z,19.40
2023-10-20T16:15:24.067Z,18.58
2023-10-20T16:17:56.324Z,13.52
2023-10-20T16:20:30.060Z,12.32
2023-10-20T16:23:07.806Z,12.85
2023-10-20T16:25:41.032Z,12.13
2023-10-20T16:28:10.052Z,11.45
2023-10-20T16:30:42.222Z,13.55
2023-10-20T16:33:12.201Z,14.50
2023-10-20T16:35:49.426Z,15.07
2023-10-20T16:38:18.667Z,13.25
2023-10-20T16:40:53.476Z,12.52
2023-10-20T16:43:23.529Z,12.93
2023-10-20T16:45:56.181Z,13.25
2023-10-20T16:48:26.559Z,15.32
2023-10-20T16:51:03.509Z,14.85
2023-10-20T16:53:33.236Z,13.70
2023-10-20T16:56:02.631Z,13.13
2023-10-20T16:58:32.556Z,14.20
2023-10-20T17:01:06.999Z,12.90
2023-10-20T17:03:36.657Z,14.25
2023-10-20T17:06:24.614Z,12.02
2023-10-20T17:08:53.597Z,11.27
2023-10-20T17:11:24.441Z,10.77
2023-10-20T17:13:53.333Z,9.65
2023-10-20T17:16:25.643Z,9.63
2023-10-20T17:18:55.837Z,9.02
2023-10-20T17:21:48.355Z,9.13
2023-10-20T17:24:17.128Z,8.40
2023-10-20T17:26:46.859Z,8.40
2023-10-20T17:29:15.706Z,8.15
2023-10-20T17:31:46.990Z,7.80
2023-10-20T17:34:15.152Z,7.30
2023-10-20T17:36:47.303Z,7.33
2023-10-20T17:39:22.074Z,8.17
2023-10-20T17:41:56.148Z,6.97
2023-10-20T17:44:24.728Z,8.07
2023-10-20T17:46:57.215Z,8.03
2023-10-20T17:49:26.760Z,8.23
2023-10-20T17:52:16.007Z,8.90
2023-10-20T17:54:48.360Z,8.93
2023-10-20T17:57:20.471Z,8.93
2023-10-20T17:59:52.054Z,8.63
2023-10-20T18:02:25.162Z,7.87
2023-10-20T18:04:58.607Z,8.33
2023-10-20T18:07:30.426Z,8.27
2023-10-20T18:10:01.878Z,8.57
2023-10-20T18:12:50.585Z,7.53
2023-10-20T18:15:22.089Z,7.87
2023-10-20T18:17:54.113Z,8.90
2023-10-20T18:20:25.326Z,9.17
2023-10-20T18:22:59.452Z,9.03
2023-10-20T18:25:30.327Z,9.77
2023-10-20T18:28:09.134Z,10.80
2023-10-20T18:30:43.238Z,11.20
2023-10-20T18:33:13.988Z,10.97
2023-10-20T18:36:05.352Z,10.00
2023-10-20T18:38:35.145Z,9.87
2023-10-20T18:41:04.543Z,9.80
2023-10-20T18:43:34.997Z,9.90
2023-10-20T18:46:26.147Z,9.60
2023-10-20T18:49:04.938Z,9.83
2023-10-20T18:51:36.277Z,9.43
2023-10-20T18:54:27.141Z,9.87
2023-10-20T18:56:56.151Z,8.53
2023-10-20T18:59:25.573Z,8.67
2023-10-20T19:02:03.726Z,9.50
2023-10-20T19:04:36.591Z,12.23
2023-10-20T19:07:09.340Z,11.83
2023-10-20T19:09:43.872Z,10.97
2023-10-20T19:12:14.123Z,10.17
2023-10-20T19:14:42.239Z,10.43
2023-10-20T19:17:10.985Z,10.87
2023-10-20T19:19:43.361Z,16.23
2023-10-20T19:22:14.125Z,23.77
2023-10-20T19:24:45.014Z,20.77
2023-10-20T19:27:14.350Z,19.70
2023-10-20T19:29:42.466Z,18.60
2023-10-20T19:32:10.330Z,20.90
2023-10-20T19:34:39.595Z,17.90
2023-10-20T19:37:07.499Z,18.60
2023-10-20T19:39:37.621Z,18.10
2023-10-20T19:42:09.370Z,18.83
2023-10-20T19:44:41.023Z,14.33
2023-10-20T19:47:11.460Z,14.07
2023-10-20T19:49:40.256Z,13.07
2023-10-20T19:52:08.498Z,9.67
2023-10-20T19:54:37.044Z,10.77
2023-10-20T19:57:05.251Z,8.47
2023-10-20T19:59:33.738Z,9.97
2023-10-20T20:02:03.434Z,8.33
2023-10-20T20:04:34.263Z,7.93
2023-10-20T20:07:04.213Z,7.60
2023-10-20T20:09:32.245Z,7.70
2023-10-20T20:12:00.717Z,8.00
2023-10-20T20:14:28.662Z,11.63
2023-10-20T20:16:57.127Z,9.90
2023-10-20T20:19:25.205Z,10.17
2023-10-20T20:21:53.059Z,9.60
2023-10-20T20:24:23.629Z,12.37
2023-10-20T20:26:52.259Z,14.20
2023-10-20T20:29:19.891Z,14.60
2023-10-20T20:31:47.661Z,13.90
2023-10-20T20:34:20.619Z,12.77
2023-10-20T20:36:50.990Z,15.60
2023-10-20T20:39:19.647Z,11.87
2023-10-20T20:41:54.534Z,11.07
2023-10-20T20:44:22.519Z,14.03
2023-10-20T20:46:52.390Z,12.27
2023-10-20T20:49:20.053Z,11.63
2023-10-20T20:51:47.964Z,11.13
2023-10-20T20:54:16.827Z,11.00
2023-10-20T20:56:47.093Z,10.60
2023-10-20T20:59:14.749Z,10.73
2023-10-20T21:01:42.439Z,10.63
2023-10-20T21:04:10.097Z,10.87
2023-10-20T21:06:37.857Z,9.93
2023-10-20T21:09:08.494Z,9.60
2023-10-20T21:11:37.903Z,9.60
2023-10-20T21:14:09.658Z,10.53
2023-10-20T21:16:40.444Z,9.67
2023-10-20T21:19:09.474Z,9.43
2023-10-20T21:21:38.363Z,9.47
2023-10-20T21:24:10.421Z,8.87
2023-10-20T21:26:41.046Z,9.37
2023-10-20T21:29:11.713Z,9.13
2023-10-20T21:31:40.220Z,8.80
2023-10-20T21:34:10.389Z,8.20
2023-10-20T21:36:38.189Z,8.17
2023-10-20T21:39:11.434Z,7.87
2023-10-20T21:41:41.425Z,8.57
2023-10-20T21:44:12.507Z,8.60
2023-10-20T21:46:42.884Z,8.70
2023-10-20T21:49:10.751Z,9.47
2023-10-20T21:51:40.149Z,10.27
2023-10-20T21:54:08.452Z,9.27
2023-10-20T21:56:36.840Z,9.60
2023-10-20T21:59:04.816Z,9.97
2023-10-20T22:01:32.429Z,9.27
2023-10-20T22:04:00.190Z,9.47
2023-10-20T22:06:27.951Z,9.43
2023-10-20T22:08:55.627Z,10.67
2023-10-20T22:11:23.333Z,9.97
2023-10-20T22:13:50.956Z,10.70
2023-10-20T22:16:18.656Z,10.57
2023-10-20T22:18:49.884Z,10.23
2023-10-20T22:21:17.749Z,10.03
2023-10-20T22:23:45.539Z,10.17
2023-10-20T22:26:13.320Z,9.20
2023-10-20T22:28:40.996Z,10.10
2023-10-20T22:31:10.412Z,9.27
2023-10-20T22:33:38.375Z,9.50
2023-10-20T22:36:06.468Z,9.47
2023-10-20T22:38:34.291Z,9.40
2023-10-20T22:41:02.733Z,9.23
2023-10-20T22:43:30.320Z,9.23
2023-10-20T22:46:02.528Z,9.60
2023-10-20T22:48:30.521Z,10.20
2023-10-20T22:50:58.145Z,8.87
2023-10-20T22:53:25.714Z,8.43
2023-10-20T22:55:53.293Z,8.70
2023-10-20T22:58:20.839Z,8.93
2023-10-20T23:00:48.421Z,8.23
2023-10-20T23:03:16.130Z,9.27
2023-10-20T23:05:43.912Z,9.17
2023-10-20T23:08:11.542Z,9.53
2023-10-20T23:10:39.185Z,9.10
2023-10-20T23:13:07.738Z,9.80
2023-10-20T23:15:42.834Z,9.10
2023-10-20T23:18:11.509Z,9.03
2023-10-20T23:20:39.973Z,8.60
2023-10-20T23:23:07.787Z,8.03
2023-10-20T23:25:36.236Z,8.03
2023-10-20T23:28:04.833Z,7.77
2023-10-20T23:30:32.380Z,6.50
2023-10-20T23:33:00.221Z,6.70
2023-10-20T23:35:27.952Z,6.73
2023-10-20T23:37:55.560Z,5.87
2023-10-20T23:40:27.095Z,5.70
2023-10-20T23:42:54.631Z,6.17
2023-10-20T23:45:22.839Z,5.33
2023-10-20T23:47:51.001Z,4.97
2023-10-20T23:50:18.721Z,5.60
2023-10-20T23:52:46.241Z,5.43
2023-10-20T23:55:13.907Z,5.60
2023-10-20T23:57:41.490Z,4.97
